PWSweather.com
Personal Weather Stations
Station Observations
EMMBROOK1
Emmbrook, WokinghamGB

EmmbrookWokinghamGB

Lat: 51.42698, Lon: -0.850575

Elevation: 144

Station Type: WH1081

http://www.wokinghamweather.co.uk

Latest ConditionsUpdated 10:45:02 AM GMT Wednesday, Dec 12, 2018
Currently Today's Max Today's Min Today's Average
Temperature 45.1°F7.3°C 45.1°F7.3°C 41.2°F5.1°C 42.6°F5.9°C
Dew Point 40.6°F4.8°C 42.0°F5.6°C 38.9°F3.8°C 40.3°F4.6°C
Winds 6.6 mph S10.6 kmh S 6.6 mph -10.6 kmh - - 2.0 mph 3.2 kmh
Wind Gusts 8.3 mph13.4 kmh 8.3 mph13.4 kmh - -
Humidity 84% 93% 84% 92%
Pressure 30.17 in1021.7 mb 30.17 in1021.7 mb 30.14 in1020.7 mb -
Hour Temp Dew Point Humidity Winds Wind Gusts Pressure Precip Precip Rate Daily Precip Total
10:45 AM 45.1°F7.3°C 40.6°F4.8°C 84% 6.6 mph S10.6 kmh S 8.3 mph13.4 kmh 30.17 in1021.7 mb 0.00 in0.0 mm 0.00 in0.0 mm 0.00 in0.0 mm
10:30 AM 45.0°F7.2°C 41.0°F5.0°C 86% 5.0 mph SSE8.0 kmh SSE 6.9 mph11.1 kmh 30.17 in1021.7 mb 0.00 in0.0 mm 0.00 in0.0 mm 0.00 in0.0 mm
10:15 AM 44.6°F7.0°C 41.3°F5.2°C 88% 4.7 mph SE7.6 kmh SE 6.0 mph9.7 kmh 30.17 in1021.7 mb 0.00 in0.0 mm 0.00 in0.0 mm 0.00 in0.0 mm
10:00 AM 44.4°F6.9°C 41.7°F5.4°C 90% 5.7 mph SSE9.2 kmh SSE 7.6 mph12.2 kmh 30.17 in1021.7 mb 0.00 in0.0 mm 0.00 in0.0 mm 0.00 in0.0 mm
09:45 AM 44.4°F6.9°C 42.0°F5.6°C 91% 4.7 mph SSE7.6 kmh SSE 6.9 mph11.1 kmh 30.17 in1021.7 mb 0.00 in0.0 mm 0.00 in0.0 mm 0.00 in0.0 mm
09:30 AM 44.2°F6.8°C 41.8°F5.4°C 91% 4.2 mph SE6.8 kmh SE 5.4 mph8.7 kmh 30.17 in1021.7 mb 0.00 in0.0 mm 0.00 in0.0 mm 0.00 in0.0 mm
09:15 AM 43.9°F6.6°C 41.7°F5.4°C 92% 3.9 mph SE6.3 kmh SE 6.0 mph9.7 kmh 30.17 in1021.7 mb 0.00 in0.0 mm 0.00 in0.0 mm 0.00 in0.0 mm
09:00 AM 43.3°F6.3°C 41.2°F5.1°C 92% 3.5 mph SE5.6 kmh SE 6.0 mph9.7 kmh 30.17 in1021.7 mb 0.00 in0.0 mm 0.00 in0.0 mm 0.00 in0.0 mm
08:45 AM 43.0°F6.1°C 40.8°F4.9°C 92% 3.5 mph SE5.6 kmh SE 6.0 mph9.7 kmh 30.17 in1021.7 mb 0.00 in0.0 mm 0.00 in0.0 mm 0.00 in0.0 mm
08:30 AM 42.8°F6.0°C 40.6°F4.8°C 92% 2.7 mph ESE4.3 kmh ESE 4.5 mph7.2 kmh 30.17 in1021.7 mb 0.00 in0.0 mm 0.00 in0.0 mm 0.00 in0.0 mm
08:15 AM 42.8°F6.0°C 40.6°F4.8°C 92% 3.0 mph SSE4.8 kmh SSE 4.5 mph7.2 kmh 30.17 in1021.7 mb 0.00 in0.0 mm 0.00 in0.0 mm 0.00 in0.0 mm
08:00 AM 42.8°F6.0°C 40.6°F4.8°C 92% 3.6 mph SE5.8 kmh SE 5.4 mph8.7 kmh 30.17 in1021.7 mb 0.00 in0.0 mm 0.00 in0.0 mm 0.00 in0.0 mm
07:45 AM 42.6°F5.9°C 40.7°F4.8°C 93% 3.1 mph SSE5.0 kmh SSE 4.5 mph7.2 kmh 30.17 in1021.7 mb 0.00 in0.0 mm 0.00 in0.0 mm 0.00 in0.0 mm
07:30 AM 42.4°F5.8°C 40.6°F4.8°C 93% 2.6 mph SE4.2 kmh SE 4.5 mph7.2 kmh 30.16 in1021.3 mb 0.00 in0.0 mm 0.00 in0.0 mm 0.00 in0.0 mm
07:15 AM 42.4°F5.8°C 40.6°F4.8°C 93% 2.0 mph SSE3.2 kmh SSE 3.1 mph5.0 kmh 30.16 in1021.3 mb 0.00 in0.0 mm 0.00 in0.0 mm 0.00 in0.0 mm
07:00 AM 42.4°F5.8°C 40.3°F4.6°C 92% 2.8 mph S4.5 kmh S 5.4 mph8.7 kmh 30.16 in1021.3 mb 0.00 in0.0 mm 0.00 in0.0 mm 0.00 in0.0 mm
06:45 AM 42.3°F5.7°C 40.1°F4.5°C 92% 1.1 mph SSE1.8 kmh SSE 3.1 mph5.0 kmh 30.16 in1021.3 mb 0.00 in0.0 mm 0.00 in0.0 mm 0.00 in0.0 mm
06:30 AM 42.4°F5.8°C 40.3°F4.6°C 92% 1.6 mph S2.6 kmh S 4.5 mph7.2 kmh 30.15 in1021.0 mb 0.00 in0.0 mm 0.00 in0.0 mm 0.00 in0.0 mm
06:15 AM 42.4°F5.8°C 40.3°F4.6°C 92% 1.3 mph ESE2.1 kmh ESE 3.1 mph5.0 kmh 30.15 in1021.0 mb 0.00 in0.0 mm 0.00 in0.0 mm 0.00 in0.0 mm
06:00 AM 42.4°F5.8°C 40.6°F4.8°C 93% 1.6 mph ESE2.6 kmh ESE 3.1 mph5.0 kmh 30.14 in1020.7 mb 0.00 in0.0 mm 0.00 in0.0 mm 0.00 in0.0 mm
05:45 AM 42.4°F5.8°C 40.6°F4.8°C 93% 1.5 mph SSE2.4 kmh SSE 3.1 mph5.0 kmh 30.14 in1020.7 mb 0.00 in0.0 mm 0.00 in0.0 mm 0.00 in0.0 mm
05:30 AM 42.6°F5.9°C 40.7°F4.8°C 93% 1.2 mph E1.9 kmh E 3.1 mph5.0 kmh 30.14 in1020.7 mb 0.00 in0.0 mm 0.00 in0.0 mm 0.00 in0.0 mm
05:15 AM 42.8°F6.0°C 40.6°F4.8°C 92% 1.4 mph ESE2.3 kmh ESE 2.2 mph3.5 kmh 30.14 in1020.7 mb 0.00 in0.0 mm 0.00 in0.0 mm 0.00 in0.0 mm
05:00 AM 43.0°F6.1°C 40.8°F4.9°C 92% 1.9 mph E3.1 kmh E 3.8 mph6.1 kmh 30.14 in1020.7 mb 0.00 in0.0 mm 0.00 in0.0 mm 0.00 in0.0 mm
04:45 AM 42.8°F6.0°C 40.6°F4.8°C 92% 0.8 mph E1.3 kmh E 2.2 mph3.5 kmh 30.14 in1020.7 mb 0.00 in0.0 mm 0.00 in0.0 mm 0.00 in0.0 mm
04:30 AM 42.8°F6.0°C 40.6°F4.8°C 92% 1.0 mph SE1.6 kmh SE 2.2 mph3.5 kmh 30.14 in1020.7 mb 0.00 in0.0 mm 0.00 in0.0 mm 0.00 in0.0 mm
04:15 AM 42.8°F6.0°C 40.6°F4.8°C 92% 0.8 mph NNE1.3 kmh NNE 2.2 mph3.5 kmh 30.15 in1021.0 mb 0.00 in0.0 mm 0.00 in0.0 mm 0.00 in0.0 mm
04:00 AM 42.8°F6.0°C 40.6°F4.8°C 92% 1.3 mph SSE2.1 kmh SSE 2.2 mph3.5 kmh 30.15 in1021.0 mb 0.00 in0.0 mm 0.00 in0.0 mm 0.00 in0.0 mm
03:45 AM 42.8°F6.0°C 40.6°F4.8°C 92% 2.4 mph SE3.9 kmh SE 3.8 mph6.1 kmh 30.15 in1021.0 mb 0.00 in0.0 mm 0.00 in0.0 mm 0.00 in0.0 mm
03:30 AM 42.4°F5.8°C 40.6°F4.8°C 93% 1.6 mph ESE2.6 kmh ESE 3.1 mph5.0 kmh 30.16 in1021.3 mb 0.00 in0.0 mm 0.00 in0.0 mm 0.00 in0.0 mm
03:15 AM 42.3°F5.7°C 40.4°F4.7°C 93% 0.6 mph WNW1.0 kmh WNW 0.7 mph1.1 kmh 30.16 in1021.3 mb 0.00 in0.0 mm 0.00 in0.0 mm 0.00 in0.0 mm
03:00 AM 42.1°F5.6°C 40.2°F4.6°C 93% 1.2 mph E1.9 kmh E 3.1 mph5.0 kmh 30.16 in1021.3 mb 0.00 in0.0 mm 0.00 in0.0 mm 0.00 in0.0 mm
02:45 AM 41.9°F5.5°C 39.7°F4.3°C 92% 0.5 mph ESE0.8 kmh ESE 1.6 mph2.6 kmh 30.16 in1021.3 mb 0.00 in0.0 mm 0.00 in0.0 mm 0.00 in0.0 mm
02:30 AM 41.7°F5.4°C 39.6°F4.2°C 92% 0.6 mph E1.0 kmh E 1.6 mph2.6 kmh 30.16 in1021.3 mb 0.00 in0.0 mm 0.00 in0.0 mm 0.00 in0.0 mm
02:15 AM 41.4°F5.2°C 39.2°F4.0°C 92% 0.3 mph E0.5 kmh E 0.7 mph1.1 kmh 30.16 in1021.3 mb 0.00 in0.0 mm 0.00 in0.0 mm 0.00 in0.0 mm
02:00 AM 41.2°F5.1°C 39.0°F3.9°C 92% 0.2 mph ESE0.3 kmh ESE 0.7 mph1.1 kmh 30.16 in1021.3 mb 0.00 in0.0 mm 0.00 in0.0 mm 0.00 in0.0 mm
01:45 AM 41.2°F5.1°C 39.0°F3.9°C 92% Calm Calm -- 30.16 in1021.3 mb 0.00 in0.0 mm 0.00 in0.0 mm 0.00 in0.0 mm
01:30 AM 41.2°F5.1°C 39.0°F3.9°C 92% 0.1 mph ESE0.2 kmh ESE 0.7 mph1.1 kmh 30.16 in1021.3 mb 0.00 in0.0 mm 0.00 in0.0 mm 0.00 in0.0 mm
01:15 AM 41.2°F5.1°C 39.0°F3.9°C 92% 0.1 mph SSE0.2 kmh SSE 0.7 mph1.1 kmh 30.16 in1021.3 mb 0.00 in0.0 mm 0.00 in0.0 mm 0.00 in0.0 mm
01:00 AM 41.2°F5.1°C 39.0°F3.9°C 92% 0.1 mph NNE0.2 kmh NNE 0.7 mph1.1 kmh 30.17 in1021.7 mb 0.00 in0.0 mm 0.00 in0.0 mm 0.00 in0.0 mm
12:45 AM 41.2°F5.1°C 39.0°F3.9°C 92% 0.7 mph SE1.1 kmh SE 2.2 mph3.5 kmh 30.16 in1021.3 mb 0.00 in0.0 mm 0.00 in0.0 mm 0.00 in0.0 mm
12:30 AM 41.2°F5.1°C 39.0°F3.9°C 92% 0.7 mph E1.1 kmh E 2.2 mph3.5 kmh 30.17 in1021.7 mb 0.00 in0.0 mm 0.00 in0.0 mm 0.00 in0.0 mm
12:15 AM 41.4°F5.2°C 39.2°F4.0°C 92% 0.1 mph S0.2 kmh S 0.7 mph1.1 kmh 30.17 in1021.7 mb 0.00 in0.0 mm 0.00 in0.0 mm 0.00 in0.0 mm
12:00 AM 41.4°F5.2°C 38.9°F3.8°C 91% 1.4 mph SE2.3 kmh SE 3.1 mph5.0 kmh 30.17 in1021.7 mb 0.00 in0.0 mm 0.00 in0.0 mm 0.00 in0.0 mm